createdAt,value
2019-03-26T00:00:09.245Z,67.18
2019-03-26T00:02:40.199Z,66.33
2019-03-26T00:05:09.851Z,65.56
2019-03-26T00:07:39.154Z,65.26
2019-03-26T00:10:08.554Z,65.72
2019-03-26T00:12:37.877Z,64.83
2019-03-26T00:15:07.349Z,64.65
2019-03-26T00:17:37.269Z,64.37
2019-03-26T00:20:06.725Z,64.32
2019-03-26T00:22:36.046Z,64.30
2019-03-26T00:25:06.980Z,64.53
2019-03-26T00:27:36.368Z,64.00
2019-03-26T00:30:06.130Z,63.15
2019-03-26T00:32:35.462Z,62.58
2019-03-26T00:35:05.225Z,62.83
2019-03-26T00:37:34.550Z,62.98
2019-03-26T00:40:04.449Z,63.17
2019-03-26T00:42:33.775Z,63.14
2019-03-26T00:45:03.107Z,62.92
2019-03-26T00:47:32.507Z,63.14
2019-03-26T00:50:01.830Z,63.23
2019-03-26T00:52:31.227Z,63.63
2019-03-26T00:55:00.557Z,63.24
2019-03-26T00:57:29.876Z,63.44
2019-03-26T00:59:59.208Z,63.71
2019-03-26T01:02:28.852Z,63.28
2019-03-26T01:04:58.182Z,63.23
2019-03-26T01:07:27.513Z,63.46
2019-03-26T01:09:56.840Z,63.82
2019-03-26T01:12:26.159Z,64.04
2019-03-26T01:14:56.460Z,63.78
2019-03-26T01:17:25.781Z,64.16
2019-03-26T01:19:55.113Z,64.59
2019-03-26T01:22:24.436Z,64.93
2019-03-26T01:24:53.769Z,65.01
2019-03-26T01:27:23.100Z,65.37
2019-03-26T01:29:52.714Z,65.51
2019-03-26T01:32:22.400Z,65.27
2019-03-26T01:34:51.724Z,65.83
2019-03-26T01:37:21.320Z,66.15
2019-03-26T01:39:50.940Z,66.24
2019-03-26T01:42:20.265Z,66.18
2019-03-26T01:44:49.588Z,66.13
2019-03-26T01:47:18.917Z,66.55
2019-03-26T01:49:49.211Z,66.17
2019-03-26T01:52:18.540Z,66.33
2019-03-26T01:54:47.861Z,66.46
2019-03-26T01:57:17.477Z,67.00
2019-03-26T01:59:46.801Z,66.15
2019-03-26T02:02:16.138Z,65.72
2019-03-26T02:04:58.962Z,64.12
2019-03-26T02:07:16.493Z,64.10
2019-03-26T02:09:46.888Z,63.48
2019-03-26T02:12:16.561Z,63.45
2019-03-26T02:14:45.885Z,63.58
2019-03-26T02:17:15.204Z,63.81
2019-03-26T02:19:44.531Z,63.15
2019-03-26T02:22:13.869Z,63.01
2019-03-26T02:24:43.190Z,63.07
2019-03-26T02:27:12.513Z,63.82
2019-03-26T02:29:41.903Z,63.59
2019-03-26T02:32:11.176Z,63.45
2019-03-26T02:34:40.790Z,63.22
2019-03-26T02:37:10.121Z,63.79
2019-03-26T02:39:39.448Z,63.59
2019-03-26T02:42:08.784Z,64.12
2019-03-26T02:44:39.169Z,64.70
2019-03-26T02:47:08.491Z,65.15
2019-03-26T02:49:37.815Z,65.03
2019-03-26T02:52:07.165Z,65.18
2019-03-26T02:54:37.490Z,64.38
2019-03-26T02:57:06.812Z,64.27
2019-03-26T02:59:36.133Z,64.29
2019-03-26T03:02:05.469Z,64.39
2019-03-26T03:04:34.791Z,64.39
2019-03-26T03:07:04.121Z,64.63
2019-03-26T03:09:33.485Z,64.62
2019-03-26T03:12:02.831Z,64.74
2019-03-26T03:14:33.249Z,64.80
2019-03-26T03:17:02.622Z,64.84
2019-03-26T03:19:31.939Z,64.84
2019-03-26T03:22:01.265Z,65.11
2019-03-26T03:24:30.591Z,64.57
2019-03-26T03:27:00.222Z,64.43
2019-03-26T03:29:29.549Z,64.06
2019-03-26T03:31:58.880Z,64.44
2019-03-26T03:34:28.269Z,64.41
2019-03-26T03:36:57.579Z,64.58
2019-03-26T03:39:26.894Z,63.66
2019-03-26T03:41:56.225Z,63.47
2019-03-26T03:44:25.551Z,63.74
2019-03-26T03:46:56.574Z,63.75
2019-03-26T03:49:27.679Z,63.27
2019-03-26T03:51:58.050Z,63.51
2019-03-26T03:54:27.519Z,63.70
2019-03-26T03:56:58.703Z,63.22
2019-03-26T03:59:29.066Z,63.17
2019-03-26T04:01:58.405Z,63.28
2019-03-26T04:04:27.732Z,63.73
2019-03-26T04:06:57.062Z,64.24
2019-03-26T04:09:26.389Z,63.79
2019-03-26T04:11:55.743Z,63.98
2019-03-26T04:14:25.067Z,64.00
2019-03-26T04:16:54.398Z,63.84
2019-03-26T04:19:23.732Z,63.73
2019-03-26T04:21:53.057Z,63.76
2019-03-26T04:24:22.386Z,64.15
2019-03-26T04:26:51.712Z,63.98
2019-03-26T04:29:21.040Z,63.99
2019-03-26T04:31:50.373Z,64.32
2019-03-26T04:34:22.664Z,64.70
2019-03-26T04:36:50.729Z,64.82
2019-03-26T04:39:20.060Z,65.09
2019-03-26T04:41:49.382Z,64.02
2019-03-26T04:44:18.714Z,63.69
2019-03-26T04:46:48.041Z,64.26
2019-03-26T04:49:17.370Z,64.48
2019-03-26T04:51:46.718Z,63.44
2019-03-26T04:54:16.028Z,63.43
2019-03-26T04:56:45.360Z,62.37
2019-03-26T04:59:14.691Z,62.71
2019-03-26T05:01:44.018Z,62.74
2019-03-26T05:04:13.346Z,62.88
2019-03-26T05:06:42.671Z,62.91
2019-03-26T05:09:11.996Z,63.39
2019-03-26T05:11:41.325Z,63.63
2019-03-26T05:14:10.915Z,63.90
2019-03-26T05:16:40.237Z,63.68
2019-03-26T05:19:09.566Z,64.11
2019-03-26T05:21:38.891Z,64.36
2019-03-26T05:24:08.534Z,64.24
2019-03-26T05:26:38.116Z,63.43
2019-03-26T05:29:07.442Z,63.82
2019-03-26T05:31:36.768Z,64.09
2019-03-26T05:34:06.099Z,63.11
2019-03-26T05:36:35.446Z,63.08
2019-03-26T05:39:06.814Z,63.33
2019-03-26T05:41:37.098Z,62.34
2019-03-26T05:44:06.435Z,62.67
2019-03-26T05:46:35.763Z,62.15
2019-03-26T05:49:05.104Z,61.07
2019-03-26T05:51:34.424Z,61.06
2019-03-26T05:54:03.762Z,61.16
2019-03-26T05:56:33.338Z,61.23
2019-03-26T05:59:02.677Z,60.95
2019-03-26T06:01:32.005Z,60.56
2019-03-26T06:04:01.339Z,60.75
2019-03-26T06:06:30.661Z,60.51
2019-03-26T06:08:59.998Z,60.76
2019-03-26T06:11:29.326Z,60.57
2019-03-26T06:13:58.730Z,60.85
2019-03-26T06:16:37.887Z,61.04
2019-03-26T06:18:59.422Z,61.29
2019-03-26T06:21:28.751Z,60.94
2019-03-26T06:23:58.082Z,61.32
2019-03-26T06:26:27.414Z,60.72
2019-03-26T06:28:56.758Z,60.60
2019-03-26T06:31:26.077Z,59.87
2019-03-26T06:33:56.659Z,60.54
2019-03-26T06:36:25.917Z,60.72
2019-03-26T06:38:55.255Z,60.48
2019-03-26T06:41:24.584Z,59.71
2019-03-26T06:43:53.919Z,60.02
2019-03-26T06:46:23.254Z,60.02
2019-03-26T06:48:52.862Z,59.74
2019-03-26T06:51:22.214Z,60.24
2019-03-26T06:53:51.542Z,60.56
2019-03-26T06:56:20.871Z,60.38
2019-03-26T06:58:50.200Z,60.25
2019-03-26T07:01:19.602Z,61.01
2019-03-26T07:03:48.921Z,61.14
2019-03-26T07:06:18.255Z,61.22
2019-03-26T07:08:47.587Z,61.42
2019-03-26T07:11:16.933Z,61.72
2019-03-26T07:13:46.262Z,62.16
2019-03-26T07:16:15.897Z,61.89
2019-03-26T07:18:45.222Z,62.21
2019-03-26T07:21:14.632Z,61.57
2019-03-26T07:23:43.955Z,61.95
2019-03-26T07:26:13.288Z,62.57
2019-03-26T07:28:43.686Z,63.67
2019-03-26T07:31:13.020Z,64.67
2019-03-26T07:33:42.351Z,65.52
2019-03-26T07:36:11.687Z,65.62
2019-03-26T07:38:41.012Z,66.38
2019-03-26T07:41:10.342Z,66.73
2019-03-26T07:43:39.732Z,66.72
2019-03-26T07:46:09.070Z,66.72
2019-03-26T07:48:38.400Z,67.33
2019-03-26T07:51:07.755Z,66.70
2019-03-26T07:53:37.088Z,66.61
2019-03-26T07:56:06.415Z,66.62
2019-03-26T07:58:35.742Z,66.52
2019-03-26T08:01:05.068Z,66.00
2019-03-26T08:03:34.665Z,66.85
2019-03-26T08:06:04.069Z,66.92
2019-03-26T08:08:33.398Z,66.94
2019-03-26T08:11:02.727Z,65.73
2019-03-26T08:13:32.097Z,65.78
2019-03-26T08:16:01.388Z,65.50
2019-03-26T08:18:30.721Z,65.17
2019-03-26T08:21:00.044Z,65.69
2019-03-26T08:23:29.377Z,64.66
2019-03-26T08:25:58.702Z,63.87
2019-03-26T08:28:28.033Z,64.94
2019-03-26T08:30:57.377Z,64.14
2019-03-26T08:33:26.700Z,64.11
2019-03-26T08:35:56.025Z,64.24
2019-03-26T08:38:25.605Z,64.37
2019-03-26T08:40:55.177Z,64.18
2019-03-26T08:43:24.562Z,64.90
2019-03-26T08:45:53.835Z,62.99
2019-03-26T08:48:23.159Z,62.95
2019-03-26T08:50:52.629Z,62.91
2019-03-26T08:53:22.930Z,62.08
2019-03-26T08:55:52.255Z,61.97
2019-03-26T08:58:21.854Z,61.42
2019-03-26T09:00:51.179Z,61.04
2019-03-26T09:03:20.508Z,59.73
2019-03-26T09:05:49.899Z,59.40
2019-03-26T09:08:25.172Z,59.58
2019-03-26T09:10:51.934Z,60.33
2019-03-26T09:13:21.286Z,59.76
2019-03-26T09:15:50.856Z,58.92
2019-03-26T09:18:20.195Z,60.08
2019-03-26T09:20:49.523Z,59.49
2019-03-26T09:23:18.859Z,59.87
2019-03-26T09:25:48.190Z,59.70
2019-03-26T09:28:17.522Z,59.32
2019-03-26T09:30:46.848Z,59.10
2019-03-26T09:33:16.475Z,59.40
2019-03-26T09:35:45.865Z,59.33
2019-03-26T09:38:16.269Z,59.97
2019-03-26T09:40:46.665Z,60.59
2019-03-26T09:43:16.002Z,60.60
2019-03-26T09:45:45.330Z,61.02
2019-03-26T09:48:14.880Z,62.44
2019-03-26T09:50:44.220Z,65.20
2019-03-26T09:53:13.550Z,66.71
2019-03-26T09:55:43.170Z,68.02
2019-03-26T09:58:12.769Z,69.16
2019-03-26T10:00:42.172Z,70.18
2019-03-26T10:03:11.502Z,71.44
2019-03-26T10:05:40.840Z,71.47
2019-03-26T10:08:10.167Z,71.63
2019-03-26T10:10:39.519Z,72.29
2019-03-26T10:13:09.092Z,72.77
2019-03-26T10:15:38.430Z,73.06
2019-03-26T10:18:09.122Z,72.14
2019-03-26T10:20:38.459Z,71.23
2019-03-26T10:23:07.781Z,71.01
2019-03-26T10:25:37.115Z,70.87
2019-03-26T10:28:06.513Z,70.29
2019-03-26T10:30:38.126Z,65.89
2019-03-26T10:33:08.088Z,64.85
2019-03-26T10:35:37.716Z,63.78
2019-03-26T10:38:07.523Z,61.55
2019-03-26T10:40:40.085Z,61.67
2019-03-26T10:43:09.414Z,59.35
2019-03-26T10:45:38.727Z,60.80
2019-03-26T10:48:08.418Z,60.23
2019-03-26T10:50:38.031Z,58.67
2019-03-26T10:53:07.354Z,58.41
2019-03-26T10:55:36.934Z,58.25
2019-03-26T10:58:06.336Z,57.41
2019-03-26T11:00:35.735Z,55.80
2019-03-26T11:03:05.137Z,53.63
2019-03-26T11:05:34.859Z,54.30
2019-03-26T11:08:04.196Z,52.73
2019-03-26T11:10:33.774Z,53.41
2019-03-26T11:13:03.175Z,50.55
2019-03-26T11:15:32.585Z,50.72
2019-03-26T11:18:01.993Z,48.16
2019-03-26T11:20:31.309Z,49.95
2019-03-26T11:23:00.891Z,49.84
2019-03-26T11:25:30.229Z,49.16
2019-03-26T11:27:59.559Z,49.40
2019-03-26T11:30:29.127Z,50.82
2019-03-26T11:32:58.458Z,50.46
2019-03-26T11:35:27.831Z,50.47
2019-03-26T11:37:57.125Z,50.55
2019-03-26T11:40:26.463Z,50.63
2019-03-26T11:42:55.798Z,49.58
2019-03-26T11:45:25.137Z,49.42
2019-03-26T11:47:54.465Z,50.31
2019-03-26T11:50:23.915Z,51.03
2019-03-26T11:52:53.693Z,52.38
2019-03-26T11:55:23.056Z,52.89
2019-03-26T11:57:52.381Z,54.12
2019-03-26T12:00:32.789Z,55.01
2019-03-26T12:03:02.144Z,54.90
2019-03-26T12:05:31.454Z,55.41
2019-03-26T12:08:00.795Z,55.79
2019-03-26T12:10:30.149Z,56.70
2019-03-26T12:12:59.478Z,57.44
2019-03-26T12:15:30.104Z,57.56
2019-03-26T12:17:59.432Z,57.79
2019-03-26T12:20:28.760Z,57.56
2019-03-26T12:22:58.090Z,57.60
2019-03-26T12:25:27.768Z,57.55
2019-03-26T12:27:57.121Z,57.58
2019-03-26T12:30:31.909Z,57.66
2019-03-26T12:33:01.241Z,58.47
2019-03-26T12:35:31.210Z,58.14
2019-03-26T12:38:00.565Z,58.95
2019-03-26T12:40:29.899Z,59.83
2019-03-26T12:43:00.513Z,60.80
2019-03-26T12:45:29.935Z,60.55
2019-03-26T12:47:59.272Z,60.14
2019-03-26T12:50:31.956Z,59.44
2019-03-26T12:53:00.257Z,59.90
2019-03-26T12:55:29.545Z,59.85
2019-03-26T12:57:58.908Z,59.84
2019-03-26T13:00:34.549Z,60.84
2019-03-26T13:03:03.883Z,60.73
2019-03-26T13:05:33.215Z,60.27
2019-03-26T13:08:02.842Z,60.41
2019-03-26T13:10:32.468Z,62.16
2019-03-26T13:13:01.815Z,63.51
2019-03-26T13:15:31.212Z,63.66
2019-03-26T13:18:00.867Z,63.78
2019-03-26T13:20:30.200Z,63.28
2019-03-26T13:22:59.535Z,63.80
2019-03-26T13:25:28.867Z,63.37
2019-03-26T13:27:58.200Z,62.94
2019-03-26T13:30:27.780Z,63.83
2019-03-26T13:32:57.131Z,62.46
2019-03-26T13:35:26.463Z,62.81
2019-03-26T13:37:56.612Z,61.93
2019-03-26T13:40:27.568Z,61.43
2019-03-26T13:42:56.982Z,61.53
2019-03-26T13:45:26.569Z,60.96
2019-03-26T13:47:55.904Z,59.70
2019-03-26T13:50:26.224Z,59.85
2019-03-26T13:52:56.923Z,59.49
2019-03-26T13:55:26.356Z,59.34
2019-03-26T13:57:55.764Z,59.10
2019-03-26T14:00:34.757Z,59.02
2019-03-26T14:03:04.692Z,59.39
2019-03-26T14:05:34.036Z,59.49
2019-03-26T14:08:03.516Z,58.92
2019-03-26T14:10:40.772Z,59.34
2019-03-26T14:13:04.148Z,58.27
2019-03-26T14:15:33.494Z,58.45
2019-03-26T14:18:02.885Z,58.57
2019-03-26T14:20:32.165Z,58.18
2019-03-26T14:23:01.487Z,58.04
2019-03-26T14:25:30.992Z,57.61
2019-03-26T14:28:00.393Z,58.30
2019-03-26T14:30:35.072Z,58.20
2019-03-26T14:33:05.144Z,58.28
2019-03-26T14:35:34.477Z,58.31
2019-03-26T14:38:04.146Z,58.07
2019-03-26T14:40:33.475Z,58.33
2019-03-26T14:43:02.829Z,57.58
2019-03-26T14:45:32.162Z,58.41
2019-03-26T14:48:01.495Z,57.50
2019-03-26T14:50:30.903Z,56.67
2019-03-26T14:53:00.225Z,56.49
2019-03-26T14:55:29.558Z,56.41
2019-03-26T14:57:58.899Z,56.52
2019-03-26T15:00:28.220Z,56.62
2019-03-26T15:02:57.562Z,56.01
2019-03-26T15:05:26.885Z,55.63
2019-03-26T15:07:56.547Z,55.77
2019-03-26T15:10:25.974Z,55.37
2019-03-26T15:12:55.302Z,55.72
2019-03-26T15:15:24.638Z,55.05
2019-03-26T15:17:54.093Z,55.56
2019-03-26T15:20:23.772Z,54.70
2019-03-26T15:22:53.116Z,54.36
2019-03-26T15:25:22.814Z,54.45
2019-03-26T15:27:52.138Z,55.09
2019-03-26T15:30:23.430Z,54.77
2019-03-26T15:32:52.767Z,55.06
2019-03-26T15:35:22.107Z,55.25
2019-03-26T15:37:51.444Z,55.36
2019-03-26T15:40:20.884Z,55.76
2019-03-26T15:42:50.292Z,56.09
2019-03-26T15:45:20.138Z,55.38
2019-03-26T15:47:49.622Z,55.52
2019-03-26T15:50:31.180Z,54.96
2019-03-26T15:53:00.524Z,55.29
2019-03-26T15:55:29.892Z,55.47
2019-03-26T15:57:59.975Z,55.42
2019-03-26T16:00:32.383Z,54.59
2019-03-26T16:03:01.790Z,54.95
2019-03-26T16:05:31.125Z,54.74
2019-03-26T16:08:00.822Z,54.68
2019-03-26T16:10:30.181Z,54.75
2019-03-26T16:12:59.511Z,54.67
2019-03-26T16:15:28.855Z,55.17
2019-03-26T16:17:58.171Z,54.98
2019-03-26T16:20:27.512Z,54.60
2019-03-26T16:22:56.863Z,55.13
2019-03-26T16:25:26.197Z,55.14
2019-03-26T16:27:55.852Z,54.61
2019-03-26T16:30:26.145Z,54.16
2019-03-26T16:32:55.507Z,54.13
2019-03-26T16:35:24.862Z,54.05
2019-03-26T16:37:54.290Z,54.60
2019-03-26T16:40:23.693Z,54.17
2019-03-26T16:42:53.042Z,54.09
2019-03-26T16:45:22.367Z,54.95
2019-03-26T16:47:51.699Z,54.40
2019-03-26T16:50:21.017Z,54.98
2019-03-26T16:52:50.355Z,55.02
2019-03-26T16:55:19.975Z,55.00
2019-03-26T16:57:49.372Z,55.36
2019-03-26T17:00:21.770Z,55.24
2019-03-26T17:02:51.098Z,55.90
2019-03-26T17:05:26.346Z,56.07
2019-03-26T17:07:55.845Z,56.52
2019-03-26T17:10:25.191Z,56.01
2019-03-26T17:12:54.524Z,56.21
2019-03-26T17:15:23.952Z,56.55
2019-03-26T17:17:53.582Z,56.86
2019-03-26T17:20:24.178Z,56.38
2019-03-26T17:22:53.669Z,56.49
2019-03-26T17:25:23.005Z,56.25
2019-03-26T17:27:52.336Z,56.27
2019-03-26T17:30:21.668Z,56.42
2019-03-26T17:32:50.996Z,56.36
2019-03-26T17:35:20.329Z,56.57
2019-03-26T17:37:59.615Z,56.55
2019-03-26T17:40:20.791Z,56.68
2019-03-26T17:42:50.117Z,56.54
2019-03-26T17:45:19.454Z,56.64
2019-03-26T17:47:48.800Z,56.54
2019-03-26T17:50:18.207Z,56.96
2019-03-26T17:52:47.540Z,56.92
2019-03-26T17:55:16.870Z,57.83
2019-03-26T17:57:46.432Z,58.03
2019-03-26T18:00:17.782Z,57.23
2019-03-26T18:02:47.116Z,57.21
2019-03-26T18:05:27.871Z,56.69
2019-03-26T18:07:57.567Z,55.53
2019-03-26T18:10:26.985Z,55.12
2019-03-26T18:12:56.396Z,55.01
2019-03-26T18:15:25.725Z,55.41
2019-03-26T18:17:55.059Z,55.18
2019-03-26T18:20:32.624Z,55.63
2019-03-26T18:22:55.436Z,55.52
2019-03-26T18:25:24.848Z,55.41
2019-03-26T18:27:54.203Z,55.62
2019-03-26T18:30:23.865Z,55.55
2019-03-26T18:32:53.220Z,55.48
2019-03-26T18:35:22.558Z,56.05
2019-03-26T18:37:52.125Z,55.66
2019-03-26T18:40:21.467Z,55.70
2019-03-26T18:42:50.805Z,55.87
2019-03-26T18:45:20.462Z,55.90
2019-03-26T18:47:49.906Z,55.91
2019-03-26T18:50:21.046Z,56.71
2019-03-26T18:52:51.344Z,57.46
2019-03-26T18:55:20.682Z,57.73
2019-03-26T18:57:50.020Z,57.35
2019-03-26T19:00:22.723Z,57.63
2019-03-26T19:02:52.143Z,57.48
2019-03-26T19:05:21.566Z,56.93
2019-03-26T19:07:50.897Z,57.43
2019-03-26T19:10:28.837Z,57.23
2019-03-26T19:12:58.409Z,56.77
2019-03-26T19:15:28.042Z,56.84
2019-03-26T19:17:57.370Z,56.88
2019-03-26T19:20:26.786Z,56.87
2019-03-26T19:22:56.208Z,56.99
2019-03-26T19:25:25.593Z,57.09
2019-03-26T19:27:54.939Z,57.20
2019-03-26T19:30:24.276Z,57.10
2019-03-26T19:32:53.617Z,56.81
2019-03-26T19:35:22.945Z,57.14
2019-03-26T19:37:52.291Z,57.19
2019-03-26T19:40:21.703Z,57.24
2019-03-26T19:42:51.041Z,57.65
2019-03-26T19:45:20.364Z,57.57
2019-03-26T19:47:50.767Z,57.51
2019-03-26T19:50:20.160Z,57.53
2019-03-26T19:52:49.489Z,57.65
2019-03-26T19:55:18.821Z,57.93
2019-03-26T19:57:48.253Z,57.91
2019-03-26T20:00:18.017Z,58.07
2019-03-26T20:02:47.432Z,58.32
2019-03-26T20:05:16.817Z,58.35
2019-03-26T20:07:46.154Z,58.24
2019-03-26T20:10:17.177Z,58.10
2019-03-26T20:12:46.527Z,58.07
2019-03-26T20:15:17.001Z,58.29
2019-03-26T20:17:46.328Z,58.48
2019-03-26T20:20:16.390Z,58.64
2019-03-26T20:22:45.887Z,58.98
2019-03-26T20:25:15.452Z,59.14
2019-03-26T20:27:44.789Z,58.93
2019-03-26T20:30:14.652Z,59.25
2019-03-26T20:32:44.351Z,59.29
2019-03-26T20:35:14.121Z,59.39
2019-03-26T20:37:43.603Z,59.66
2019-03-26T20:40:13.473Z,59.56
2019-03-26T20:42:42.873Z,59.68
2019-03-26T20:45:14.530Z,59.57
2019-03-26T20:47:44.926Z,59.50
2019-03-26T20:50:14.814Z,59.70
2019-03-26T20:52:44.233Z,60.12
2019-03-26T20:55:14.298Z,59.66
2019-03-26T20:57:44.354Z,59.94
2019-03-26T21:00:15.665Z,60.13
2019-03-26T21:02:45.047Z,59.94
2019-03-26T21:05:14.615Z,60.08
2019-03-26T21:07:43.949Z,60.13
2019-03-26T21:10:13.832Z,60.07
2019-03-26T21:12:43.233Z,60.19
2019-03-26T21:15:12.730Z,60.70
2019-03-26T21:17:42.360Z,60.29
2019-03-26T21:20:12.031Z,60.44
2019-03-26T21:22:41.434Z,60.61
2019-03-26T21:25:11.108Z,60.46
2019-03-26T21:27:40.514Z,60.44
2019-03-26T21:30:15.999Z,61.28
2019-03-26T21:32:45.562Z,61.16
2019-03-26T21:35:15.462Z,60.86
2019-03-26T21:37:44.800Z,61.00
2019-03-26T21:40:14.398Z,61.36
2019-03-26T21:42:43.797Z,61.52
2019-03-26T21:45:14.895Z,61.57
2019-03-26T21:47:44.233Z,61.67
2019-03-26T21:50:13.794Z,61.99
2019-03-26T21:52:44.118Z,61.88
2019-03-26T21:55:13.739Z,61.74
2019-03-26T21:57:43.100Z,61.71
2019-03-26T22:00:13.642Z,61.80
2019-03-26T22:02:42.960Z,62.00
2019-03-26T22:05:12.845Z,62.23
2019-03-26T22:07:42.170Z,62.48
2019-03-26T22:10:11.851Z,62.30
2019-03-26T22:12:41.179Z,62.31
2019-03-26T22:15:11.761Z,62.42
2019-03-26T22:17:41.081Z,62.75
2019-03-26T22:20:11.623Z,62.67
2019-03-26T22:22:40.956Z,62.67
2019-03-26T22:25:10.537Z,62.75
2019-03-26T22:27:39.867Z,62.79
2019-03-26T22:30:11.114Z,62.92
2019-03-26T22:32:40.451Z,63.06
2019-03-26T22:35:10.071Z,63.18
2019-03-26T22:37:39.404Z,63.37
2019-03-26T22:40:09.276Z,63.68
2019-03-26T22:42:38.683Z,64.24
2019-03-26T22:45:10.325Z,64.00
2019-03-26T22:47:39.812Z,64.30
2019-03-26T22:50:10.998Z,64.58
2019-03-26T22:52:40.327Z,64.22
2019-03-26T22:55:10.642Z,64.51
2019-03-26T22:57:39.964Z,64.33
2019-03-26T23:00:12.519Z,64.53
2019-03-26T23:02:43.466Z,64.65
2019-03-26T23:05:14.553Z,64.83
2019-03-26T23:07:43.987Z,65.20
2019-03-26T23:10:15.581Z,64.96
2019-03-26T23:12:44.912Z,65.00
2019-03-26T23:15:17.354Z,65.08
2019-03-26T23:17:46.849Z,65.22
2019-03-26T23:20:16.250Z,65.76
2019-03-26T23:22:45.748Z,65.83
2019-03-26T23:25:16.015Z,65.43
2019-03-26T23:27:45.349Z,65.75
2019-03-26T23:30:15.580Z,66.32
2019-03-26T23:32:44.983Z,66.33
2019-03-26T23:35:14.480Z,66.29
2019-03-26T23:37:44.005Z,66.30
2019-03-26T23:40:13.694Z,66.09
2019-03-26T23:42:43.297Z,66.12
2019-03-26T23:45:12.963Z,66.23
2019-03-26T23:47:42.338Z,66.41
2019-03-26T23:50:13.194Z,67.04
2019-03-26T23:52:42.863Z,67.04
2019-03-26T23:55:12.726Z,67.26
2019-03-26T23:57:42.061Z,67.57
